createdAt,value
2022-11-28T00:01:31.719Z,11.70
2022-11-28T00:03:59.763Z,11.30
2022-11-28T00:06:28.764Z,12.60
2022-11-28T00:08:58.823Z,11.77
2022-11-28T00:11:28.416Z,12.70
2022-11-28T00:13:56.883Z,12.47
2022-11-28T00:16:25.381Z,12.67
2022-11-28T00:18:55.288Z,11.43
2022-11-28T00:21:24.384Z,13.07
2022-11-28T00:23:52.839Z,11.70
2022-11-28T00:26:23.039Z,11.73
2022-11-28T00:28:52.840Z,11.73
2022-11-28T00:31:23.948Z,12.20
2022-11-28T00:33:52.520Z,11.90
2022-11-28T00:36:21.836Z,11.60
2022-11-28T00:38:50.968Z,11.53
2022-11-28T00:41:20.938Z,12.07
2022-11-28T00:43:50.330Z,11.77
2022-11-28T00:46:21.271Z,11.43
2022-11-28T00:48:49.849Z,11.47
2022-11-28T00:51:20.199Z,11.37
2022-11-28T00:53:49.859Z,11.63
2022-11-28T00:56:19.330Z,12.23
2022-11-28T00:58:47.585Z,11.53
2022-11-28T01:01:18.283Z,11.73
2022-11-28T01:03:48.563Z,11.70
2022-11-28T01:06:22.453Z,11.63
2022-11-28T01:08:50.447Z,11.40
2022-11-28T01:11:18.716Z,11.53
2022-11-28T01:13:46.762Z,12.30
2022-11-28T01:16:15.060Z,12.00
2022-11-28T01:18:43.103Z,11.83
2022-11-28T01:21:12.683Z,11.17
2022-11-28T01:23:40.954Z,11.83
2022-11-28T01:26:18.871Z,11.60
2022-11-28T01:28:47.211Z,11.13
2022-11-28T01:31:17.635Z,10.90
2022-11-28T01:33:46.031Z,11.30
2022-11-28T01:36:16.277Z,11.47
2022-11-28T01:38:44.651Z,11.00
2022-11-28T01:41:13.663Z,11.67
2022-11-28T01:43:57.952Z,11.60
2022-11-28T01:46:25.944Z,10.77
2022-11-28T01:48:55.819Z,10.90
2022-11-28T01:51:26.005Z,10.47
2022-11-28T01:53:54.484Z,10.63
2022-11-28T01:56:26.009Z,10.63
2022-11-28T01:58:58.268Z,11.13
2022-11-28T02:01:27.029Z,11.33
2022-11-28T02:03:56.658Z,10.87
2022-11-28T02:06:27.100Z,10.33
2022-11-28T02:08:56.087Z,10.70
2022-11-28T02:11:53.831Z,10.13
2022-11-28T02:14:34.997Z,9.53
2022-11-28T02:17:15.282Z,9.17
2022-11-28T02:20:33.031Z,9.33
2022-11-28T02:23:10.175Z,9.20
2022-11-28T02:26:01.132Z,9.40
2022-11-28T02:28:51.899Z,8.70
2022-11-28T02:31:38.246Z,8.57
2022-11-28T02:34:13.292Z,9.23
2022-11-28T02:36:48.459Z,9.03
2022-11-28T02:39:27.166Z,8.33
2022-11-28T02:42:01.850Z,8.97
2022-11-28T02:44:35.414Z,8.97
2022-11-28T02:47:07.413Z,8.77
2022-11-28T02:49:42.233Z,8.57
2022-11-28T02:52:14.460Z,9.00
2022-11-28T02:54:44.529Z,8.07
2022-11-28T02:57:12.709Z,8.40
2022-11-28T02:59:49.188Z,8.43
2022-11-28T03:02:20.798Z,9.03
2022-11-28T03:04:58.560Z,8.57
2022-11-28T03:07:47.632Z,8.47
2022-11-28T03:10:24.419Z,9.07
2022-11-28T03:13:01.188Z,8.87
2022-11-28T03:15:33.571Z,9.00
2022-11-28T03:18:08.920Z,7.97
2022-11-28T03:20:47.016Z,8.23
2022-11-28T03:23:18.891Z,8.57
2022-11-28T03:25:57.331Z,8.33
2022-11-28T03:28:32.199Z,8.33
2022-11-28T03:31:03.935Z,7.80
2022-11-28T03:33:35.310Z,8.57
2022-11-28T03:36:09.460Z,7.63
2022-11-28T03:38:41.412Z,7.50
2022-11-28T03:41:13.474Z,7.73
2022-11-28T03:43:47.699Z,7.77
2022-11-28T03:46:19.322Z,7.43
2022-11-28T03:48:51.728Z,7.87
2022-11-28T03:51:25.766Z,7.63
2022-11-28T03:54:01.015Z,8.63
2022-11-28T03:56:37.715Z,7.93
2022-11-28T03:59:10.829Z,7.90
2022-11-28T04:01:52.084Z,7.83
2022-11-28T04:04:28.286Z,7.43
2022-11-28T04:07:01.592Z,8.10
2022-11-28T04:09:40.202Z,7.40
2022-11-28T04:12:14.602Z,7.67
2022-11-28T04:14:47.964Z,7.20
2022-11-28T04:17:20.704Z,7.93
2022-11-28T04:19:52.013Z,8.13
2022-11-28T04:22:25.802Z,7.77
2022-11-28T04:24:57.372Z,8.50
2022-11-28T04:27:30.626Z,7.70
2022-11-28T04:30:01.755Z,7.97
2022-11-28T04:32:32.862Z,8.10
2022-11-28T04:35:05.920Z,7.57
2022-11-28T04:37:38.144Z,8.30
2022-11-28T04:40:09.223Z,8.80
2022-11-28T04:42:41.117Z,8.00
2022-11-28T04:45:16.012Z,8.23
2022-11-28T04:47:45.389Z,8.17
2022-11-28T04:50:14.477Z,8.57
2022-11-28T04:52:52.043Z,8.30
2022-11-28T04:55:29.966Z,8.70
2022-11-28T04:58:04.079Z,8.70
2022-11-28T05:00:35.574Z,9.60
2022-11-28T05:03:05.103Z,8.73
2022-11-28T05:05:33.281Z,9.00
2022-11-28T05:08:02.679Z,8.60
2022-11-28T05:10:30.750Z,9.70
2022-11-28T05:12:58.750Z,9.40
2022-11-28T05:15:26.771Z,9.37
2022-11-28T05:17:54.755Z,8.87
2022-11-28T05:20:22.773Z,9.17
2022-11-28T05:22:50.794Z,9.30
2022-11-28T05:25:20.887Z,10.00
2022-11-28T05:27:48.977Z,8.43
2022-11-28T05:30:17.178Z,8.47
2022-11-28T05:32:45.327Z,9.23
2022-11-28T05:35:13.362Z,8.40
2022-11-28T05:37:41.831Z,8.77
2022-11-28T05:40:10.273Z,8.37
2022-11-28T05:42:39.742Z,9.00
2022-11-28T05:45:08.748Z,8.90
2022-11-28T05:47:36.995Z,8.63
2022-11-28T05:50:05.675Z,9.30
2022-11-28T05:52:33.860Z,8.57
2022-11-28T05:55:01.865Z,9.40
2022-11-28T05:57:32.011Z,8.47
2022-11-28T06:00:01.405Z,9.00
2022-11-28T06:02:29.515Z,8.27
2022-11-28T06:04:57.622Z,8.60
2022-11-28T06:07:25.764Z,8.70
2022-11-28T06:09:53.821Z,9.67
2022-11-28T06:12:21.850Z,9.03
2022-11-28T06:14:49.901Z,8.90
2022-11-28T06:17:19.402Z,8.87
2022-11-28T06:19:47.412Z,8.47
2022-11-28T06:22:15.422Z,8.70
2022-11-28T06:24:43.439Z,8.73
2022-11-28T06:27:11.533Z,9.00
2022-11-28T06:29:39.862Z,8.67
2022-11-28T06:32:08.464Z,7.97
2022-11-28T06:34:37.945Z,8.43
2022-11-28T06:37:06.028Z,8.57
2022-11-28T06:39:34.050Z,9.10
2022-11-28T06:42:02.185Z,8.60
2022-11-28T06:44:30.597Z,8.00
2022-11-28T06:46:58.644Z,8.93
2022-11-28T06:49:26.782Z,9.10
2022-11-28T06:51:56.166Z,8.40
2022-11-28T06:54:24.169Z,8.50
2022-11-28T06:56:52.257Z,9.20
2022-11-28T06:59:20.281Z,9.07
2022-11-28T07:01:49.341Z,8.83
2022-11-28T07:04:17.449Z,9.30
2022-11-28T07:06:45.829Z,9.83
2022-11-28T07:09:15.239Z,8.83
2022-11-28T07:11:43.459Z,9.17
2022-11-28T07:14:11.626Z,8.43
2022-11-28T07:16:40.291Z,8.80
2022-11-28T07:19:08.460Z,8.83
2022-11-28T07:21:36.477Z,8.53
2022-11-28T07:24:04.835Z,8.93
2022-11-28T07:26:35.564Z,9.10
2022-11-28T07:29:06.233Z,9.00
2022-11-28T07:31:34.531Z,9.07
2022-11-28T07:34:04.284Z,9.70
2022-11-28T07:36:32.697Z,9.60
2022-11-28T07:39:02.700Z,9.97
2022-11-28T07:41:31.142Z,10.00
2022-11-28T07:44:02.875Z,10.13
2022-11-28T07:46:32.960Z,9.67
2022-11-28T07:49:01.439Z,8.67
2022-11-28T07:51:31.251Z,8.77
2022-11-28T07:54:00.130Z,9.80
2022-11-28T07:56:50.090Z,9.30
2022-11-28T07:59:19.793Z,9.57
2022-11-28T08:01:48.801Z,9.87
2022-11-28T08:04:17.021Z,9.87
2022-11-28T08:06:45.330Z,9.70
2022-11-28T08:09:13.660Z,10.67
2022-11-28T08:11:43.016Z,9.83
2022-11-28T08:14:11.551Z,10.07
2022-11-28T08:16:45.039Z,10.73
2022-11-28T08:19:13.377Z,9.70
2022-11-28T08:21:41.403Z,9.97
2022-11-28T08:24:09.676Z,10.37
2022-11-28T08:26:37.878Z,10.27
2022-11-28T08:29:06.424Z,10.60
2022-11-28T08:31:36.239Z,11.50
2022-11-28T08:34:07.593Z,10.83
2022-11-28T08:36:35.677Z,10.10
2022-11-28T08:41:52.920Z,10.47
2022-11-28T08:44:20.984Z,11.10
2022-11-28T08:46:49.076Z,10.83
2022-11-28T08:49:18.539Z,11.77
2022-11-28T08:51:46.836Z,11.43
2022-11-28T08:54:15.000Z,11.30
2022-11-28T08:56:45.243Z,11.50
2022-11-28T08:59:13.242Z,11.17
2022-11-28T09:01:41.374Z,11.57
2022-11-28T09:04:09.529Z,10.37
2022-11-28T09:06:41.236Z,11.43
2022-11-28T09:09:10.000Z,11.83
2022-11-28T09:11:38.210Z,11.73
2022-11-28T09:14:06.510Z,12.20
2022-11-28T09:16:34.814Z,12.23
2022-11-28T09:19:02.893Z,12.87
2022-11-28T09:21:30.984Z,11.83
2022-11-28T09:24:00.657Z,12.57
2022-11-28T09:26:29.933Z,12.47
2022-11-28T09:28:58.185Z,12.33
2022-11-28T09:31:26.602Z,12.20
2022-11-28T09:33:55.301Z,12.30
2022-11-28T09:36:25.103Z,13.77
2022-11-28T09:38:53.280Z,12.83
2022-11-28T09:41:51.698Z,13.53
2022-11-28T09:44:23.979Z,12.70
2022-11-28T09:46:55.034Z,13.07
2022-11-28T09:49:34.035Z,13.17
2022-11-28T09:52:13.145Z,13.17
2022-11-28T09:54:48.107Z,12.87
2022-11-28T09:57:25.493Z,12.70
2022-11-28T09:59:53.626Z,13.37
2022-11-28T10:02:33.152Z,13.70
2022-11-28T10:05:13.435Z,13.27
2022-11-28T10:07:55.315Z,14.00
2022-11-28T10:10:32.905Z,14.27
2022-11-28T10:13:09.017Z,14.87
2022-11-28T10:15:45.164Z,14.37
2022-11-28T10:18:34.564Z,14.40
2022-11-28T10:21:06.033Z,14.73
2022-11-28T10:23:40.135Z,14.03
2022-11-28T10:26:14.126Z,13.97
2022-11-28T10:28:49.597Z,14.57
2022-11-28T10:31:22.715Z,15.10
2022-11-28T10:33:56.025Z,14.00
2022-11-28T10:36:28.916Z,15.20
2022-11-28T10:38:58.293Z,15.43
2022-11-28T10:41:34.207Z,15.77
2022-11-28T10:44:11.976Z,16.47
2022-11-28T10:46:53.542Z,15.90
2022-11-28T10:49:33.303Z,15.33
2022-11-28T10:52:12.998Z,16.33
2022-11-28T10:55:02.221Z,15.47
2022-11-28T10:57:37.348Z,16.07
2022-11-28T11:00:13.495Z,15.50
2022-11-28T11:02:45.528Z,15.27
2022-11-28T11:05:15.868Z,15.07
2022-11-28T11:07:49.264Z,15.07
2022-11-28T11:10:20.404Z,14.87
2022-11-28T11:12:51.075Z,15.20
2022-11-28T11:15:24.128Z,14.87
2022-11-28T11:17:53.247Z,15.00
2022-11-28T11:20:35.022Z,15.67
2022-11-28T11:23:12.242Z,16.13
2022-11-28T11:25:48.102Z,14.07
2022-11-28T11:28:41.289Z,15.03
2022-11-28T11:31:20.396Z,15.07
2022-11-28T11:33:51.036Z,14.83
2022-11-28T11:36:26.897Z,15.10
2022-11-28T11:39:07.660Z,15.37
2022-11-28T11:41:35.996Z,15.33
2022-11-28T11:44:29.245Z,15.37
2022-11-28T11:47:02.873Z,14.17
2022-11-28T11:49:33.788Z,14.50
2022-11-28T11:52:03.874Z,15.40
2022-11-28T11:54:32.112Z,14.07
2022-11-28T11:57:25.374Z,15.43
2022-11-28T11:59:54.296Z,14.47
2022-11-28T12:02:29.072Z,14.23
2022-11-28T12:05:03.995Z,14.43
2022-11-28T12:07:38.013Z,15.53
2022-11-28T12:10:08.793Z,15.13
2022-11-28T12:12:38.483Z,15.57
2022-11-28T12:15:16.600Z,14.33
2022-11-28T12:18:06.968Z,14.30
2022-11-28T12:20:52.549Z,14.40
2022-11-28T12:23:33.047Z,14.67
2022-11-28T12:26:06.819Z,14.27
2022-11-28T12:28:49.075Z,14.27
2022-11-28T12:31:25.761Z,15.07
2022-11-28T12:34:06.785Z,14.50
2022-11-28T12:36:40.139Z,15.40
2022-11-28T12:39:23.152Z,15.40
2022-11-28T12:42:21.548Z,14.63
2022-11-28T12:45:08.512Z,13.50
2022-11-28T12:47:44.876Z,14.63
2022-11-28T12:50:26.888Z,14.97
2022-11-28T12:53:04.387Z,14.67
2022-11-28T12:55:42.475Z,14.50
2022-11-28T12:58:17.019Z,14.73
2022-11-28T13:00:53.747Z,14.23
2022-11-28T13:03:35.471Z,14.20
2022-11-28T13:06:18.765Z,14.80
2022-11-28T13:09:13.212Z,13.90
2022-11-28T13:11:53.412Z,14.30
2022-11-28T13:14:32.615Z,13.97
2022-11-28T13:17:11.968Z,14.97
2022-11-28T13:19:49.210Z,14.20
2022-11-28T13:22:24.614Z,14.90
2022-11-28T13:25:01.851Z,14.10
2022-11-28T13:27:36.628Z,14.47
2022-11-28T13:30:15.265Z,14.33
2022-11-28T13:32:48.258Z,14.63
2022-11-28T13:35:17.980Z,14.33
2022-11-28T13:40:49.609Z,13.63
2022-11-28T13:43:26.707Z,15.33
2022-11-28T13:45:56.154Z,13.63
2022-11-28T13:51:41.813Z,14.10
2022-11-28T13:54:48.685Z,14.47
2022-11-28T13:57:29.537Z,14.13
2022-11-28T14:00:03.849Z,14.67
2022-11-28T14:02:41.899Z,14.40
2022-11-28T14:05:26.572Z,14.90
2022-11-28T14:07:56.302Z,14.23
2022-11-28T14:10:39.832Z,14.63
2022-11-28T14:13:23.554Z,14.17
2022-11-28T14:16:07.793Z,14.37
2022-11-28T14:18:57.171Z,14.30
2022-11-28T14:21:33.761Z,13.60
2022-11-28T14:24:10.035Z,13.63
2022-11-28T14:26:43.204Z,14.07
2022-11-28T14:29:22.288Z,14.03
2022-11-28T14:32:21.667Z,13.83
2022-11-28T14:34:44.953Z,13.87
2022-11-28T14:37:48.707Z,13.57
2022-11-28T14:41:05.733Z,13.90
2022-11-28T14:43:37.291Z,14.07
2022-11-28T14:46:27.239Z,13.37
2022-11-28T14:49:18.941Z,14.80
2022-11-28T14:52:38.253Z,13.13
2022-11-28T14:55:20.569Z,13.70
2022-11-28T14:57:58.621Z,14.27
2022-11-28T15:00:30.115Z,13.53
2022-11-28T15:03:14.204Z,13.80
2022-11-28T15:05:46.364Z,13.17
2022-11-28T15:08:37.898Z,12.90
2022-11-28T15:11:17.472Z,12.53
2022-11-28T15:14:05.571Z,12.60
2022-11-28T15:16:36.132Z,12.77
2022-11-28T15:19:09.234Z,13.83
2022-11-28T15:21:44.722Z,12.47
2022-11-28T15:24:27.388Z,12.70
2022-11-28T15:26:57.751Z,13.47
2022-11-28T15:29:27.585Z,13.77
2022-11-28T15:31:58.898Z,13.30
2022-11-28T15:34:29.681Z,13.43
2022-11-28T15:37:00.657Z,12.90
2022-11-28T15:39:34.964Z,14.23
2022-11-28T15:42:05.823Z,13.50
2022-11-28T15:44:34.114Z,13.77
2022-11-28T15:47:03.679Z,14.00
2022-11-28T15:49:34.179Z,13.87
2022-11-28T15:52:04.636Z,14.93
2022-11-28T15:54:35.893Z,13.30
2022-11-28T15:57:04.702Z,13.43
2022-11-28T15:59:33.135Z,13.87
2022-11-28T16:02:12.446Z,14.53
2022-11-28T16:04:41.015Z,13.10
2022-11-28T16:07:14.837Z,13.70
2022-11-28T16:09:54.027Z,12.93
2022-11-28T16:12:22.194Z,12.63
2022-11-28T16:14:53.337Z,13.13
2022-11-28T16:17:27.868Z,13.90
2022-11-28T16:19:57.374Z,13.33
2022-11-28T16:22:31.366Z,13.60
2022-11-28T16:25:11.731Z,13.90
2022-11-28T16:27:42.265Z,13.57
2022-11-28T16:30:26.982Z,13.43
2022-11-28T16:32:57.524Z,13.70
2022-11-28T16:35:28.419Z,13.93
2022-11-28T16:38:05.857Z,14.93
2022-11-28T16:40:34.017Z,13.87
2022-11-28T16:43:04.967Z,13.10
2022-11-28T16:45:34.707Z,15.17
2022-11-28T16:48:14.251Z,14.50
2022-11-28T16:51:14.846Z,14.63
2022-11-28T16:53:45.845Z,14.37
2022-11-28T16:56:25.257Z,14.47
2022-11-28T16:58:54.745Z,13.87
2022-11-28T17:01:22.931Z,14.77
2022-11-28T17:03:55.494Z,14.93
2022-11-28T17:06:30.131Z,14.77
2022-11-28T17:08:58.425Z,14.50
2022-11-28T17:11:30.539Z,16.03
2022-11-28T17:14:01.274Z,15.93
2022-11-28T17:16:33.258Z,15.63
2022-11-28T17:19:02.866Z,16.00
2022-11-28T17:21:35.470Z,16.03
2022-11-28T17:24:03.615Z,15.43
2022-11-28T17:26:31.636Z,16.20
2022-11-28T17:28:59.846Z,16.60
2022-11-28T17:31:27.891Z,15.57
2022-11-28T17:33:55.912Z,15.90
2022-11-28T17:36:25.293Z,16.10
2022-11-28T17:38:53.314Z,16.30
2022-11-28T17:41:23.360Z,16.30
2022-11-28T17:43:51.368Z,16.90
2022-11-28T17:46:21.474Z,16.97
2022-11-28T17:48:49.522Z,17.00
2022-11-28T17:51:17.527Z,16.57
2022-11-28T17:53:47.137Z,17.50
2022-11-28T17:56:15.164Z,17.67
2022-11-28T17:58:43.156Z,18.27
2022-11-28T18:01:12.101Z,17.37
2022-11-28T18:03:40.572Z,16.87
2022-11-28T18:06:15.458Z,18.27
2022-11-28T18:08:43.520Z,17.93
2022-11-28T18:11:14.143Z,18.57
2022-11-28T18:13:42.959Z,19.60
2022-11-28T18:16:11.679Z,20.47
2022-11-28T18:18:40.073Z,18.23
2022-11-28T18:21:08.762Z,19.50
2022-11-28T18:23:38.594Z,18.97
2022-11-28T18:26:11.043Z,19.53
2022-11-28T18:28:40.925Z,19.70
2022-11-28T18:31:12.589Z,19.67
2022-11-28T18:33:41.207Z,19.23
2022-11-28T18:36:11.006Z,20.03
2022-11-28T18:38:39.259Z,20.30
2022-11-28T18:41:09.436Z,20.70
2022-11-28T18:43:37.915Z,21.47
2022-11-28T18:46:08.303Z,20.07
2022-11-28T18:48:39.312Z,19.90
2022-11-28T18:51:12.547Z,20.37
2022-11-28T18:53:40.855Z,20.63
2022-11-28T18:56:09.363Z,20.40
2022-11-28T18:58:39.004Z,21.47
2022-11-28T19:01:13.181Z,19.87
2022-11-28T19:03:41.792Z,19.73
2022-11-28T19:06:11.910Z,20.10
2022-11-28T19:08:40.543Z,18.33
2022-11-28T19:11:10.712Z,20.53
2022-11-28T19:13:39.076Z,19.60
2022-11-28T19:16:07.840Z,20.33
2022-11-28T19:18:38.525Z,19.53
2022-11-28T19:21:06.855Z,20.33
2022-11-28T19:23:34.877Z,19.87
2022-11-28T19:26:03.768Z,22.00
2022-11-28T19:28:31.831Z,21.60
2022-11-28T19:31:06.518Z,20.67
2022-11-28T19:33:34.695Z,20.23
2022-11-28T19:36:05.089Z,19.73
2022-11-28T19:38:34.017Z,20.50
2022-11-28T19:41:06.893Z,19.63
2022-11-28T19:43:34.936Z,20.73
2022-11-28T19:46:03.646Z,20.53
2022-11-28T19:48:33.198Z,20.77
2022-11-28T19:51:01.346Z,19.50
2022-11-28T19:53:31.787Z,20.50
2022-11-28T19:56:03.852Z,19.43
2022-11-28T19:58:32.700Z,20.27
2022-11-28T20:01:05.397Z,19.13
2022-11-28T20:03:34.821Z,20.03
2022-11-28T20:06:03.161Z,19.27
2022-11-28T20:08:32.520Z,20.40
2022-11-28T20:11:07.093Z,21.03
2022-11-28T20:13:35.164Z,21.23
2022-11-28T20:16:04.808Z,20.10
2022-11-28T20:18:32.940Z,20.83
2022-11-28T20:21:08.556Z,20.60
2022-11-28T20:23:42.232Z,19.87
2022-11-28T20:26:11.569Z,20.07
2022-11-28T20:28:41.390Z,19.30
2022-11-28T20:31:18.779Z,20.90
2022-11-28T20:33:46.879Z,20.23
2022-11-28T20:36:17.112Z,19.87
2022-11-28T20:38:47.211Z,19.73
2022-11-28T20:41:16.669Z,19.43
2022-11-28T20:43:44.673Z,19.73
2022-11-28T20:46:15.401Z,19.27
2022-11-28T20:48:44.066Z,20.00
2022-11-28T20:51:13.408Z,20.27
2022-11-28T20:53:41.999Z,20.00
2022-11-28T20:56:14.416Z,19.30
2022-11-28T20:58:42.575Z,19.13
2022-11-28T21:01:15.359Z,19.60
2022-11-28T21:03:43.585Z,20.43
2022-11-28T21:06:11.813Z,19.73
2022-11-28T21:08:40.259Z,21.00
2022-11-28T21:11:09.474Z,20.40
2022-11-28T21:13:39.273Z,20.23
2022-11-28T21:16:08.751Z,21.23
2022-11-28T21:18:38.752Z,19.00
2022-11-28T21:21:09.072Z,19.63
2022-11-28T21:23:38.237Z,21.03
2022-11-28T21:26:08.144Z,19.13
2022-11-28T21:28:38.993Z,20.73
2022-11-28T21:31:08.220Z,19.57
2022-11-28T21:33:36.451Z,20.77
2022-11-28T21:36:06.325Z,19.73
2022-11-28T21:38:35.002Z,20.60
2022-11-28T21:41:03.380Z,20.97
2022-11-28T21:43:31.810Z,19.77
2022-11-28T21:46:04.521Z,21.27
2022-11-28T21:48:33.547Z,20.03
2022-11-28T21:51:02.447Z,19.77
2022-11-28T21:53:31.555Z,19.60
2022-11-28T21:56:01.072Z,20.67
2022-11-28T21:58:30.693Z,20.27
2022-11-28T22:00:59.035Z,21.63
2022-11-28T22:03:29.832Z,20.37
2022-11-28T22:06:02.056Z,22.00
2022-11-28T22:08:30.491Z,19.57
2022-11-28T22:11:00.953Z,20.17
2022-11-28T22:13:29.205Z,20.17
2022-11-28T22:15:57.620Z,19.87
2022-11-28T22:18:25.808Z,20.83
2022-11-28T22:21:02.463Z,20.13
2022-11-28T22:23:30.729Z,20.40
2022-11-28T22:25:58.755Z,20.97
2022-11-28T22:28:27.037Z,20.13
2022-11-28T22:30:55.083Z,20.40
2022-11-28T22:33:23.139Z,20.93
2022-11-28T22:35:51.170Z,20.50
2022-11-28T22:38:20.572Z,20.33
2022-11-28T22:40:48.598Z,19.77
2022-11-28T22:43:16.616Z,20.57
2022-11-28T22:45:44.683Z,20.03
2022-11-28T22:48:12.770Z,21.43
2022-11-28T22:50:41.220Z,20.00
2022-11-28T22:53:09.249Z,19.73
2022-11-28T22:55:38.659Z,20.03
2022-11-28T22:58:06.706Z,20.80
2022-11-28T23:00:34.787Z,20.63
2022-11-28T23:03:02.951Z,20.30
2022-11-28T23:05:31.260Z,20.27
2022-11-28T23:07:59.327Z,20.27
2022-11-28T23:10:27.379Z,20.07
2022-11-28T23:12:56.843Z,20.10
2022-11-28T23:15:24.845Z,21.30
2022-11-28T23:17:52.866Z,20.40
2022-11-28T23:20:22.100Z,20.63
2022-11-28T23:22:50.112Z,21.60
2022-11-28T23:25:18.254Z,20.67
2022-11-28T23:27:46.259Z,21.97
2022-11-28T23:30:15.963Z,20.80
2022-11-28T23:32:43.972Z,20.30
2022-11-28T23:35:12.054Z,21.87
2022-11-28T23:37:40.386Z,20.80
2022-11-28T23:40:09.582Z,20.73
2022-11-28T23:42:37.632Z,21.40
2022-11-28T23:45:06.826Z,21.13
2022-11-28T23:47:36.225Z,20.70
2022-11-28T23:50:04.744Z,21.00
2022-11-28T23:52:32.778Z,21.30
2022-11-28T23:55:00.768Z,21.37
2022-11-28T23:57:29.733Z,19.77
